createdAt,value
2018-12-22T00:01:52.581Z,7.13
2018-12-22T00:04:20.914Z,7.12
2018-12-22T00:06:49.415Z,6.95
2018-12-22T00:09:18.012Z,6.80
2018-12-22T00:11:46.266Z,7.03
2018-12-22T00:14:14.618Z,7.00
2018-12-22T00:16:43.571Z,6.94
2018-12-22T00:19:12.016Z,6.91
2018-12-22T00:21:40.925Z,6.87
2018-12-22T00:24:10.783Z,6.84
2018-12-22T00:26:39.147Z,6.93
2018-12-22T00:29:07.492Z,6.92
2018-12-22T00:31:35.760Z,6.91
2018-12-22T00:34:04.144Z,6.90
2018-12-22T00:36:33.953Z,6.87
2018-12-22T00:39:02.361Z,6.92
2018-12-22T00:41:30.855Z,6.93
2018-12-22T00:43:59.296Z,6.95
2018-12-22T00:46:27.500Z,6.99
2018-12-22T00:48:57.808Z,6.93
2018-12-22T00:51:26.162Z,6.95
2018-12-22T00:53:55.359Z,7.00
2018-12-22T00:56:23.615Z,7.01
2018-12-22T00:58:51.801Z,6.93
2018-12-22T01:01:20.134Z,6.94
2018-12-22T01:03:48.354Z,6.83
2018-12-22T01:06:16.591Z,6.77
2018-12-22T01:08:44.823Z,6.82
2018-12-22T01:11:13.070Z,6.88
2018-12-22T01:13:41.689Z,6.84
2018-12-22T01:16:11.942Z,6.83
2018-12-22T01:18:43.753Z,6.85
2018-12-22T01:21:13.366Z,6.78
2018-12-22T01:23:46.282Z,6.80
2018-12-22T01:26:14.753Z,6.82
2018-12-22T01:28:43.030Z,6.80
2018-12-22T01:31:11.436Z,6.73
2018-12-22T01:33:41.340Z,6.81
2018-12-22T01:36:09.628Z,6.70
2018-12-22T01:38:37.818Z,6.78
2018-12-22T01:41:06.060Z,6.75
2018-12-22T01:43:39.816Z,6.80
2018-12-22T01:46:08.201Z,6.78
2018-12-22T01:48:36.628Z,6.81
2018-12-22T01:51:05.017Z,6.73
2018-12-22T01:53:33.242Z,6.73
2018-12-22T01:56:01.385Z,6.70
2018-12-22T01:58:29.594Z,6.74
2018-12-22T02:00:57.822Z,6.71
2018-12-22T02:03:25.983Z,6.74
2018-12-22T02:05:54.290Z,6.73
2018-12-22T02:08:22.493Z,6.64
2018-12-22T02:10:50.754Z,6.70
2018-12-22T02:13:18.956Z,6.70
2018-12-22T02:15:47.133Z,6.68
2018-12-22T02:18:19.211Z,6.63
2018-12-22T02:20:47.466Z,6.64
2018-12-22T02:23:15.793Z,6.65
2018-12-22T02:25:44.088Z,6.69
2018-12-22T02:28:12.275Z,6.66
2018-12-22T02:30:40.541Z,6.65
2018-12-22T02:33:08.756Z,6.60
2018-12-22T02:35:36.896Z,6.59
2018-12-22T02:38:05.026Z,6.63
2018-12-22T02:40:33.276Z,6.64
2018-12-22T02:43:01.534Z,6.61
2018-12-22T02:45:29.708Z,6.61
2018-12-22T02:47:57.965Z,6.59
2018-12-22T02:50:26.198Z,6.50
2018-12-22T02:52:54.342Z,6.51
2018-12-22T02:55:22.677Z,6.54
2018-12-22T02:57:50.820Z,6.50
2018-12-22T03:00:18.980Z,6.41
2018-12-22T03:02:47.409Z,6.50
2018-12-22T03:05:32.004Z,6.56
2018-12-22T03:08:00.176Z,6.51
2018-12-22T03:10:28.336Z,6.44
2018-12-22T03:12:56.486Z,6.53
2018-12-22T03:15:25.720Z,6.48
2018-12-22T03:17:53.941Z,6.56
2018-12-22T03:20:22.465Z,6.56
2018-12-22T03:22:59.005Z,6.57
2018-12-22T03:25:27.321Z,6.53
2018-12-22T03:27:55.538Z,6.57
2018-12-22T03:30:54.427Z,6.56
2018-12-22T03:33:23.226Z,6.55
2018-12-22T03:35:51.432Z,6.45
2018-12-22T03:38:19.619Z,6.43
2018-12-22T03:43:40.395Z,6.51
2018-12-22T03:46:08.722Z,6.44
2018-12-22T03:48:37.193Z,6.46
2018-12-22T03:51:05.431Z,6.49
2018-12-22T03:53:33.644Z,6.50
2018-12-22T03:56:01.849Z,6.54
2018-12-22T03:58:30.107Z,6.45
2018-12-22T04:00:58.293Z,6.46
2018-12-22T04:03:26.477Z,6.52
2018-12-22T04:05:54.694Z,6.48
2018-12-22T04:08:22.869Z,6.45
2018-12-22T04:10:51.113Z,6.37
2018-12-22T04:13:20.312Z,6.47
2018-12-22T04:15:48.473Z,6.48
2018-12-22T04:18:16.738Z,6.44
2018-12-22T04:20:44.905Z,6.40
2018-12-22T04:23:13.138Z,6.41
2018-12-22T04:25:41.282Z,6.42
2018-12-22T04:28:09.473Z,6.46
2018-12-22T04:30:37.591Z,6.42
2018-12-22T04:33:05.728Z,6.44
2018-12-22T04:35:33.875Z,6.42
2018-12-22T04:38:02.077Z,6.43
2018-12-22T04:40:30.279Z,6.38
2018-12-22T04:42:58.515Z,6.45
2018-12-22T04:45:26.668Z,6.42
2018-12-22T04:47:54.978Z,6.38
2018-12-22T04:50:23.242Z,6.37
2018-12-22T04:52:51.417Z,6.37
2018-12-22T04:55:19.650Z,6.35
2018-12-22T04:57:47.777Z,6.37
2018-12-22T05:00:16.159Z,6.38
2018-12-22T05:02:44.601Z,6.35
2018-12-22T05:05:12.825Z,6.36
2018-12-22T05:07:40.977Z,6.34
2018-12-22T05:10:09.283Z,6.24
2018-12-22T05:12:37.435Z,6.28
2018-12-22T05:15:06.720Z,6.31
2018-12-22T05:17:34.966Z,6.38
2018-12-22T05:20:03.315Z,6.35
2018-12-22T05:22:31.690Z,6.32
2018-12-22T05:25:00.011Z,6.32
2018-12-22T05:27:28.265Z,6.24
2018-12-22T05:30:02.470Z,6.14
2018-12-22T05:32:30.765Z,6.24
2018-12-22T05:34:58.989Z,6.26
2018-12-22T05:37:27.208Z,6.19
2018-12-22T05:39:55.479Z,6.25
2018-12-22T05:42:23.746Z,6.28
2018-12-22T05:44:59.748Z,6.27
2018-12-22T05:47:27.900Z,6.23
2018-12-22T05:49:56.052Z,6.30
2018-12-22T05:52:24.227Z,6.17
2018-12-22T05:54:52.476Z,6.21
2018-12-22T05:57:20.928Z,6.27
2018-12-22T05:59:49.084Z,6.18
2018-12-22T06:02:17.296Z,6.17
2018-12-22T06:04:45.642Z,6.18
2018-12-22T06:07:20.344Z,6.27
2018-12-22T06:09:48.523Z,6.13
2018-12-22T06:12:16.869Z,6.21
2018-12-22T06:14:45.042Z,6.18
2018-12-22T06:17:13.210Z,6.14
2018-12-22T06:19:42.619Z,6.15
2018-12-22T06:22:11.144Z,6.21
2018-12-22T06:24:39.340Z,6.21
2018-12-22T06:27:07.530Z,6.17
2018-12-22T06:29:35.667Z,6.20
2018-12-22T06:32:04.110Z,6.09
2018-12-22T06:34:32.334Z,6.06
2018-12-22T06:37:00.665Z,6.14
2018-12-22T06:39:28.872Z,6.16
2018-12-22T06:41:57.168Z,6.10
2018-12-22T06:44:25.462Z,6.11
2018-12-22T06:46:53.614Z,6.11
2018-12-22T06:49:21.846Z,6.11
2018-12-22T06:51:50.036Z,6.12
2018-12-22T06:54:18.402Z,6.08
2018-12-22T06:56:46.585Z,6.07
2018-12-22T06:59:14.791Z,6.02
2018-12-22T07:01:42.976Z,5.98
2018-12-22T07:04:11.199Z,5.95
2018-12-22T07:09:31.895Z,5.91
2018-12-22T07:12:00.106Z,5.99
2018-12-22T07:14:28.349Z,5.87
2018-12-22T07:16:56.639Z,5.83
2018-12-22T07:19:24.859Z,5.91
2018-12-22T07:22:11.142Z,5.86
2018-12-22T07:24:39.490Z,5.94
2018-12-22T07:27:07.779Z,5.94
2018-12-22T07:29:35.945Z,5.92
2018-12-22T07:32:04.308Z,5.82
2018-12-22T07:34:32.624Z,5.90
2018-12-22T07:37:00.878Z,5.97
2018-12-22T07:39:29.199Z,5.90
2018-12-22T07:41:57.329Z,5.98
2018-12-22T07:44:25.506Z,5.93
2018-12-22T07:46:53.725Z,5.90
2018-12-22T07:49:22.052Z,5.82
2018-12-22T07:51:51.713Z,5.83
2018-12-22T07:54:20.253Z,5.88
2018-12-22T07:56:48.420Z,5.96
2018-12-22T07:59:16.715Z,5.90
2018-12-22T08:01:44.941Z,5.96
2018-12-22T08:04:13.338Z,5.89
2018-12-22T08:06:41.484Z,5.98
2018-12-22T08:09:09.801Z,5.99
2018-12-22T08:11:38.110Z,6.05
2018-12-22T08:14:06.382Z,6.10
2018-12-22T08:19:34.893Z,6.07
2018-12-22T08:22:03.631Z,6.02
2018-12-22T08:24:31.845Z,6.05
2018-12-22T08:27:00.124Z,6.10
2018-12-22T08:29:28.367Z,6.08
2018-12-22T08:31:56.624Z,6.13
2018-12-22T08:34:24.932Z,6.12
2018-12-22T08:36:54.466Z,6.11
2018-12-22T08:39:22.847Z,6.13
2018-12-22T08:41:50.998Z,6.08
2018-12-22T08:44:19.165Z,6.10
2018-12-22T08:46:47.348Z,6.14
2018-12-22T08:49:15.557Z,6.16
2018-12-22T08:52:06.831Z,6.12
2018-12-22T08:54:35.032Z,6.08
2018-12-22T08:57:03.260Z,6.09
2018-12-22T08:59:31.448Z,6.13
2018-12-22T09:01:59.717Z,6.15
2018-12-22T09:04:27.944Z,6.17
2018-12-22T09:06:56.115Z,6.14
2018-12-22T09:09:24.503Z,6.20
2018-12-22T09:11:52.681Z,6.16
2018-12-22T09:14:20.948Z,6.15
2018-12-22T09:16:53.601Z,6.18
2018-12-22T09:19:22.791Z,6.19
2018-12-22T09:21:52.547Z,6.11
2018-12-22T09:24:20.812Z,6.20
2018-12-22T09:26:49.095Z,6.24
2018-12-22T09:29:17.235Z,6.28
2018-12-22T09:31:45.409Z,6.22
2018-12-22T09:34:19.048Z,6.27
2018-12-22T09:36:59.925Z,6.25
2018-12-22T09:39:28.222Z,6.23
2018-12-22T09:42:00.317Z,6.26
2018-12-22T09:44:28.603Z,6.30
2018-12-22T09:46:57.125Z,6.26
2018-12-22T09:49:25.296Z,6.25
2018-12-22T09:51:53.603Z,6.29
2018-12-22T09:54:21.940Z,6.26
2018-12-22T09:56:50.165Z,6.31
2018-12-22T09:59:18.320Z,6.33
2018-12-22T10:01:46.648Z,6.33
2018-12-22T10:04:14.802Z,6.37
2018-12-22T10:06:43.011Z,6.32
2018-12-22T10:09:11.169Z,6.16
2018-12-22T10:11:39.436Z,6.17
2018-12-22T10:14:07.688Z,6.16
2018-12-22T10:16:36.001Z,6.24
2018-12-22T10:19:04.303Z,6.31
2018-12-22T10:21:32.624Z,6.29
2018-12-22T10:24:00.792Z,6.36
2018-12-22T10:26:28.940Z,6.36
2018-12-22T10:28:57.130Z,6.40
2018-12-22T10:31:25.336Z,6.38
2018-12-22T10:33:53.604Z,6.20
2018-12-22T10:36:21.829Z,6.25
2018-12-22T10:38:50.102Z,6.32
2018-12-22T10:41:34.004Z,6.31
2018-12-22T10:44:02.633Z,6.29
2018-12-22T10:46:30.925Z,6.34
2018-12-22T10:48:59.179Z,6.45
2018-12-22T10:51:27.338Z,6.38
2018-12-22T10:54:01.639Z,6.48
2018-12-22T10:56:30.191Z,6.53
2018-12-22T10:58:58.541Z,6.53
2018-12-22T11:01:26.993Z,6.56
2018-12-22T11:03:59.305Z,6.43
2018-12-22T11:06:27.455Z,6.53
2018-12-22T11:08:55.655Z,6.60
2018-12-22T11:11:23.856Z,6.59
2018-12-22T11:13:52.008Z,6.44
2018-12-22T11:16:21.346Z,6.49
2018-12-22T11:18:49.480Z,6.49
2018-12-22T11:21:17.757Z,6.55
2018-12-22T11:23:46.008Z,6.47
2018-12-22T11:26:14.220Z,6.50
2018-12-22T11:28:42.377Z,6.60
2018-12-22T11:31:10.569Z,6.53
2018-12-22T11:33:41.833Z,6.60
2018-12-22T11:36:10.048Z,6.63
2018-12-22T11:38:38.250Z,6.64
2018-12-22T11:41:10.827Z,6.64
2018-12-22T11:43:41.063Z,6.66
2018-12-22T11:46:13.362Z,6.77
2018-12-22T11:49:52.869Z,6.71
2018-12-22T11:52:21.091Z,6.65
2018-12-22T11:54:51.407Z,6.67
2018-12-22T11:57:19.632Z,6.67
2018-12-22T11:59:50.279Z,6.73
2018-12-22T12:02:18.477Z,6.77
2018-12-22T12:04:46.770Z,6.70
2018-12-22T12:07:15.080Z,6.69
2018-12-22T12:09:43.287Z,6.70
2018-12-22T12:12:12.622Z,6.68
2018-12-22T12:14:40.896Z,6.52
2018-12-22T12:17:21.195Z,6.63
2018-12-22T12:19:50.524Z,6.70
2018-12-22T12:22:19.257Z,6.75
2018-12-22T12:24:47.431Z,6.72
2018-12-22T12:27:15.656Z,6.77
2018-12-22T12:29:43.838Z,6.71
2018-12-22T12:32:12.146Z,6.66
2018-12-22T12:34:41.418Z,6.64
2018-12-22T12:37:10.740Z,6.64
2018-12-22T12:39:39.210Z,6.70
2018-12-22T12:42:07.480Z,6.65
2018-12-22T12:44:36.310Z,6.68
2018-12-22T12:47:04.566Z,6.65
2018-12-22T12:49:32.862Z,6.62
2018-12-22T12:52:01.010Z,6.67
2018-12-22T12:54:29.383Z,6.68
2018-12-22T12:56:59.283Z,6.68
2018-12-22T12:59:29.333Z,6.65
2018-12-22T13:02:01.304Z,6.52
2018-12-22T13:04:27.882Z,6.66
2018-12-22T13:06:56.292Z,6.72
2018-12-22T13:09:24.500Z,6.69
2018-12-22T13:11:54.102Z,6.72
2018-12-22T13:14:24.005Z,6.70
2018-12-22T13:16:52.388Z,6.72
2018-12-22T13:19:20.650Z,6.68
2018-12-22T13:21:51.384Z,6.73
2018-12-22T13:24:19.632Z,6.73
2018-12-22T13:26:47.852Z,6.73
2018-12-22T13:29:16.072Z,6.74
2018-12-22T13:31:45.082Z,6.75
2018-12-22T13:34:13.328Z,6.77
2018-12-22T13:36:41.629Z,6.75
2018-12-22T13:39:15.904Z,6.76
2018-12-22T13:41:44.139Z,6.77
2018-12-22T13:44:12.329Z,6.84
2018-12-22T13:46:40.727Z,6.81
2018-12-22T13:49:09.311Z,6.85
2018-12-22T13:51:38.870Z,6.87
2018-12-22T13:54:07.193Z,6.87
2018-12-22T13:56:35.352Z,6.88
2018-12-22T13:59:03.722Z,6.93
2018-12-22T14:01:50.183Z,6.89
2018-12-22T14:04:19.485Z,6.87
2018-12-22T14:06:48.232Z,6.90
2018-12-22T14:09:16.543Z,6.91
2018-12-22T14:11:44.780Z,6.87
2018-12-22T14:14:18.377Z,6.89
2018-12-22T14:17:25.876Z,6.85
2018-12-22T14:20:00.077Z,6.89
2018-12-22T14:22:29.350Z,6.91
2018-12-22T14:24:58.256Z,6.90
2018-12-22T14:27:26.614Z,6.90
2018-12-22T14:29:54.864Z,6.89
2018-12-22T14:32:47.611Z,6.89
2018-12-22T14:35:24.613Z,6.82
2018-12-22T14:37:52.897Z,6.99
2018-12-22T14:40:21.276Z,7.07
2018-12-22T14:42:49.504Z,7.00
2018-12-22T14:45:17.746Z,6.95
2018-12-22T14:47:45.941Z,6.89
2018-12-22T14:50:14.177Z,6.86
2018-12-22T14:55:07.559Z,6.91
2018-12-22T14:57:44.973Z,6.95
2018-12-22T15:00:13.839Z,6.87
2018-12-22T15:02:42.069Z,6.88
2018-12-22T15:05:10.325Z,6.90
2018-12-22T15:07:38.578Z,6.85
2018-12-22T15:10:07.014Z,6.84
2018-12-22T15:12:46.615Z,6.80
2018-12-22T15:15:15.000Z,6.86
2018-12-22T15:17:43.435Z,6.89
2018-12-22T15:20:19.328Z,6.93
2018-12-22T15:22:55.541Z,6.80
2018-12-22T15:25:23.713Z,6.79
2018-12-22T15:27:51.890Z,6.99
2018-12-22T15:30:20.119Z,6.91
2018-12-22T15:32:54.490Z,6.82
2018-12-22T15:35:18.708Z,6.83
2018-12-22T15:37:46.862Z,6.74
2018-12-22T15:40:16.064Z,6.70
2018-12-22T15:42:44.228Z,6.72
2018-12-22T15:45:13.946Z,6.79
2018-12-22T15:47:43.054Z,6.79
2018-12-22T15:50:13.686Z,6.79
2018-12-22T15:52:41.967Z,6.77
2018-12-22T15:55:12.375Z,6.74
2018-12-22T15:57:40.621Z,6.75
2018-12-22T16:00:10.827Z,6.78
2018-12-22T16:02:38.974Z,6.72
2018-12-22T16:05:08.682Z,6.73
2018-12-22T16:07:37.130Z,6.79
2018-12-22T16:10:08.562Z,6.77
2018-12-22T16:12:36.781Z,6.79
2018-12-22T16:15:06.897Z,6.78
2018-12-22T16:17:35.101Z,6.78
2018-12-22T16:20:03.535Z,6.77
2018-12-22T16:22:33.944Z,6.73
2018-12-22T16:25:02.187Z,6.76
2018-12-22T16:27:30.441Z,6.72
2018-12-22T16:29:58.698Z,6.68
2018-12-22T16:32:27.109Z,6.71
2018-12-22T16:34:55.491Z,6.65
2018-12-22T16:37:23.641Z,6.69
2018-12-22T16:39:53.473Z,6.65
2018-12-22T16:42:21.710Z,6.68
2018-12-22T16:44:52.065Z,6.68
2018-12-22T16:47:20.252Z,6.66
2018-12-22T16:49:48.512Z,6.57
2018-12-22T16:52:16.796Z,6.63
2018-12-22T16:54:44.936Z,6.67
2018-12-22T16:57:17.152Z,6.67
2018-12-22T16:59:45.440Z,6.64
2018-12-22T17:02:25.381Z,6.66
2018-12-22T17:07:49.373Z,6.59
2018-12-22T17:10:20.302Z,6.61
2018-12-22T17:12:50.596Z,6.61
2018-12-22T17:15:22.247Z,6.58
2018-12-22T17:17:49.104Z,6.68
2018-12-22T17:20:17.487Z,6.64
2018-12-22T17:24:24.403Z,6.55
2018-12-22T17:26:52.562Z,6.54
2018-12-22T17:29:20.824Z,6.61
2018-12-22T17:31:48.995Z,6.67
2018-12-22T17:34:17.264Z,6.63
2018-12-22T17:36:45.495Z,6.64
2018-12-22T17:39:14.883Z,6.57
2018-12-22T17:41:43.982Z,6.59
2018-12-22T17:44:12.234Z,6.56
2018-12-22T17:46:40.396Z,6.58
2018-12-22T17:49:08.761Z,6.55
2018-12-22T17:51:37.040Z,6.49
2018-12-22T17:54:05.330Z,6.55
2018-12-22T17:56:33.798Z,6.56
2018-12-22T17:59:01.987Z,6.57
2018-12-22T18:01:30.247Z,6.61
2018-12-22T18:03:59.642Z,6.55
2018-12-22T18:06:29.499Z,6.55
2018-12-22T18:08:58.034Z,6.60
2018-12-22T18:11:26.215Z,6.55
2018-12-22T18:13:54.402Z,6.52
2018-12-22T18:16:22.640Z,6.52
2018-12-22T18:18:50.852Z,6.54
2018-12-22T18:21:19.116Z,6.57
2018-12-22T18:23:47.547Z,6.57
2018-12-22T18:26:15.845Z,6.58
2018-12-22T18:28:44.177Z,6.59
2018-12-22T18:31:12.349Z,6.62
2018-12-22T18:33:40.512Z,6.61
2018-12-22T18:36:08.917Z,6.61
2018-12-22T18:38:37.280Z,6.60
2018-12-22T18:41:07.029Z,6.64
2018-12-22T18:43:36.358Z,6.58
2018-12-22T18:46:04.620Z,6.63
2018-12-22T18:48:32.837Z,6.61
2018-12-22T18:51:01.100Z,6.60
2018-12-22T18:53:29.289Z,6.60
2018-12-22T18:55:57.449Z,6.62
2018-12-22T19:01:16.167Z,6.59
2018-12-22T19:04:04.991Z,6.56
2018-12-22T19:09:27.942Z,6.61
2018-12-22T19:11:56.089Z,6.57
2018-12-22T19:14:24.333Z,6.61
2018-12-22T19:16:52.556Z,6.62
2018-12-22T19:19:20.735Z,6.60
2018-12-22T19:21:48.952Z,6.60
2018-12-22T19:24:17.365Z,6.61
2018-12-22T19:26:45.551Z,6.58
2018-12-22T19:29:13.726Z,6.53
2018-12-22T19:31:42.248Z,6.52
2018-12-22T19:34:10.589Z,6.48
2018-12-22T19:36:38.820Z,6.53
2018-12-22T19:39:07.588Z,6.53
2018-12-22T19:41:35.800Z,6.46
2018-12-22T19:44:04.096Z,6.52
2018-12-22T19:49:25.102Z,6.42
2018-12-22T19:51:53.442Z,6.42
2018-12-22T19:54:21.700Z,6.40
2018-12-22T19:56:49.862Z,6.41
2018-12-22T19:59:18.182Z,6.43
2018-12-22T20:01:46.391Z,6.46
2018-12-22T20:04:14.797Z,6.39
2018-12-22T20:06:43.118Z,6.35
2018-12-22T20:09:11.342Z,6.38
2018-12-22T20:11:39.703Z,6.35
2018-12-22T20:14:07.851Z,6.38
2018-12-22T20:16:36.092Z,6.33
2018-12-22T20:19:04.437Z,6.33
2018-12-22T20:21:32.609Z,6.32
2018-12-22T20:24:00.785Z,6.30
2018-12-22T20:26:29.012Z,6.29
2018-12-22T20:28:57.267Z,6.34
2018-12-22T20:31:25.436Z,6.22
2018-12-22T20:33:53.610Z,6.24
2018-12-22T20:36:21.747Z,6.23
2018-12-22T20:38:49.896Z,6.13
2018-12-22T20:41:18.063Z,6.22
2018-12-22T20:43:46.268Z,6.17
2018-12-22T20:46:14.414Z,6.08
2018-12-22T20:48:42.806Z,6.15
2018-12-22T20:51:10.944Z,6.10
2018-12-22T20:53:39.379Z,6.13
2018-12-22T20:56:07.804Z,6.18
2018-12-22T20:58:38.358Z,6.20
2018-12-22T21:01:06.742Z,6.28
2018-12-22T21:03:39.788Z,6.19
2018-12-22T21:06:15.071Z,6.12
2018-12-22T21:08:47.586Z,6.16
2018-12-22T21:11:33.078Z,6.24
2018-12-22T21:14:01.333Z,6.17
2018-12-22T21:16:29.630Z,6.21
2018-12-22T21:18:57.946Z,6.25
2018-12-22T21:21:26.313Z,6.19
2018-12-22T21:23:54.539Z,6.16
2018-12-22T21:26:22.796Z,6.22
2018-12-22T21:28:51.062Z,6.24
2018-12-22T21:31:19.240Z,6.21
2018-12-22T21:33:49.618Z,6.22
2018-12-22T21:36:18.031Z,6.21
2018-12-22T21:38:46.209Z,6.11
2018-12-22T21:41:14.563Z,6.07
2018-12-22T21:43:42.726Z,6.07
2018-12-22T21:46:10.965Z,5.98
2018-12-22T21:48:39.189Z,6.07
2018-12-22T21:51:07.469Z,6.11
2018-12-22T21:53:35.676Z,6.09
2018-12-22T21:56:03.913Z,6.03
2018-12-22T21:58:32.692Z,5.96
2018-12-22T22:01:00.911Z,6.00
2018-12-22T22:03:29.084Z,6.06
2018-12-22T22:05:57.278Z,6.11
2018-12-22T22:08:27.466Z,6.13
2018-12-22T22:10:56.866Z,6.10
2018-12-22T22:13:25.144Z,6.11
2018-12-22T22:15:55.972Z,5.98
2018-12-22T22:18:24.131Z,6.07
2018-12-22T22:20:52.316Z,6.05
2018-12-22T22:23:21.695Z,6.04
2018-12-22T22:27:01.102Z,6.03
2018-12-22T22:29:29.225Z,6.03
2018-12-22T22:31:58.071Z,6.03
2018-12-22T22:34:29.399Z,6.03
2018-12-22T22:36:58.613Z,6.00
2018-12-22T22:39:26.841Z,6.05
2018-12-22T22:41:55.016Z,6.01
2018-12-22T22:44:23.774Z,6.04
2018-12-22T22:46:52.038Z,6.03
2018-12-22T22:49:20.200Z,6.01
2018-12-22T22:51:48.418Z,5.99
2018-12-22T22:54:18.041Z,6.01
2018-12-22T22:56:46.308Z,6.05
2018-12-22T22:59:17.776Z,6.02
2018-12-22T23:01:46.333Z,6.02
2018-12-22T23:04:14.555Z,5.99
2018-12-22T23:06:48.096Z,6.00
2018-12-22T23:09:16.367Z,6.01
2018-12-22T23:11:44.776Z,6.03
2018-12-22T23:14:13.058Z,6.06
2018-12-22T23:16:41.353Z,6.03
2018-12-22T23:19:09.625Z,6.07
2018-12-22T23:21:41.820Z,6.06
2018-12-22T23:24:12.333Z,6.08
2018-12-22T23:26:40.622Z,6.07
2018-12-22T23:29:08.781Z,6.07
2018-12-22T23:31:37.029Z,6.06
2018-12-22T23:34:05.339Z,6.05
2018-12-22T23:36:33.617Z,6.07
2018-12-22T23:39:01.834Z,6.01
2018-12-22T23:41:30.088Z,6.04
2018-12-22T23:43:58.306Z,6.09
2018-12-22T23:46:26.492Z,6.08
2018-12-22T23:48:54.655Z,6.11
2018-12-22T23:51:22.942Z,6.11
2018-12-22T23:53:51.092Z,6.15
2018-12-22T23:56:19.256Z,6.10
2018-12-22T23:58:47.490Z,6.13
